Time;durP1;ratioP1;P1;durP2;ratioP2;P2;SDS_P1;SDS_P2;PMS_P1;PMS_P2;Temp;Humidity;BMP_temperature;BMP_pressure;BME280_temperature;BME280_humidity;BME280_pressure;Samples;Min_cycle;Max_cycle;Signal;HPM_P1;HPM_P2
2023/03/05 00:00:01;;;;;;;39.23;28.00;;;6.30;44.00;;;;;;20540;6837;308458;-74
2023/03/05 00:02:26;;;;;;;35.90;27.40;;;6.20;44.00;;;;;;20544;6837;281513;-74
2023/03/05 00:04:52;;;;;;;33.25;23.12;;;6.40;44.40;;;;;;20751;6837;118382;-75
2023/03/05 00:07:17;;;;;;;35.15;27.75;;;6.30;43.70;;;;;;20522;6837;308225;-74
2023/03/05 00:09:43;;;;;;;38.97;28.00;;;6.20;43.90;;;;;;20531;6837;311820;-73
2023/03/05 00:12:09;;;;;;;35.00;22.97;;;6.40;43.90;;;;;;20748;6837;117398;-73
2023/03/05 00:14:34;;;;;;;35.70;22.30;;;6.30;43.80;;;;;;20747;6837;118049;-74
2023/03/05 00:17:00;;;;;;;34.90;21.85;;;6.00;44.00;;;;;;20750;6837;117178;-76
2023/03/05 00:19:26;;;;;;;39.22;27.65;;;5.70;44.30;;;;;;20526;6837;311763;-73
2023/03/05 00:21:51;;;;;;;36.80;27.55;;;5.80;44.70;;;;;;20534;6837;337121;-73
2023/03/05 00:24:17;;;;;;;35.45;23.52;;;6.00;44.40;;;;;;20732;6837;117423;-76
2023/03/05 00:26:42;;;;;;;32.93;21.87;;;6.00;44.20;;;;;;20734;6837;120488;-73
2023/03/05 00:29:08;;;;;;;37.10;26.67;;;5.70;44.40;;;;;;20502;6835;307183;-73
2023/03/05 00:31:34;;;;;;;33.30;22.58;;;5.80;44.70;;;;;;20739;6836;117311;-74
2023/03/05 00:33:59;;;;;;;39.80;27.83;;;5.80;44.50;;;;;;20520;6836;337150;-75
2023/03/05 00:36:25;;;;;;;34.75;26.58;;;6.10;44.30;;;;;;20509;6837;311152;-74
2023/03/05 00:38:51;;;;;;;35.33;27.43;;;6.10;44.30;;;;;;20529;6837;297127;-73
2023/03/05 00:41:16;;;;;;;36.40;27.37;;;6.30;43.70;;;;;;20508;6837;312697;-73
2023/03/05 00:43:43;;;;;;;37.40;28.10;;;6.70;43.50;;;;;;20528;6837;307346;-73
2023/03/05 00:46:08;;;;;;;33.93;22.87;;;6.60;43.90;;;;;;20736;6837;117255;-76
2023/03/05 00:48:34;;;;;;;35.72;27.35;;;6.40;43.30;;;;;;20518;6837;308237;-75
2023/03/05 00:51:00;;;;;;;38.35;27.70;;;6.40;43.70;;;;;;20521;6837;280408;-73
2023/03/05 00:53:27;;;;;;;37.40;28.27;;;6.50;43.50;;;;;;20495;6837;340819;-75
2023/03/05 00:55:53;;;;;;;37.30;27.85;;;6.70;43.00;;;;;;20498;6837;338845;-73
2023/03/05 00:58:19;;;;;;;30.40;22.43;;;6.60;43.60;;;;;;20723;6837;117975;-76
2023/03/05 01:00:49;;;;;;;34.60;27.13;;;6.60;42.70;;;;;;20525;6837;301865;-74
2023/03/05 01:03:12;;;;;;;33.87;22.70;;;6.50;43.00;;;;;;20690;6837;119471;-75
2023/03/05 01:05:38;;;;;;;32.08;21.92;;;6.30;43.10;;;;;;20754;6837;117672;-73
2023/03/05 01:08:05;;;;;;;32.60;21.77;;;6.00;43.50;;;;;;20742;6837;117529;-73
2023/03/05 01:10:31;;;;;;;37.38;26.87;;;5.80;44.00;;;;;;20530;6837;282796;-75
2023/03/05 01:12:56;;;;;;;35.45;26.30;;;5.80;44.40;;;;;;20522;6837;309914;-73
2023/03/05 01:15:22;;;;;;;36.53;26.45;;;6.10;44.20;;;;;;20507;6837;411640;-73
2023/03/05 01:17:47;;;;;;;35.17;22.67;;;6.40;43.80;;;;;;20746;6837;118068;-76
2023/03/05 01:20:14;;;;;;;37.00;26.73;;;6.30;43.60;;;;;;20541;6837;307437;-73
2023/03/05 01:22:40;;;;;;;36.23;23.07;;;6.20;43.60;;;;;;20755;6837;119836;-73
2023/03/05 01:25:06;;;;;;;38.70;27.62;;;6.20;43.60;;;;;;20517;6837;307643;-74
2023/03/05 01:27:32;;;;;;;34.50;27.13;;;6.20;43.70;;;;;;20533;6837;278508;-74
2023/03/05 01:29:57;;;;;;;34.27;23.00;;;6.40;43.50;;;;;;20744;6837;117979;-73
2023/03/05 01:32:24;;;;;;;33.83;26.77;;;6.30;43.40;;;;;;20528;6837;321459;-73
2023/03/05 01:34:49;;;;;;;36.97;22.73;;;6.30;43.60;;;;;;20742;6837;119218;-73
2023/03/05 01:37:15;;;;;;;33.13;21.13;;;6.20;43.60;;;;;;20708;6837;121730;-73
2023/03/05 01:39:42;;;;;;;35.33;27.40;;;5.90;43.80;;;;;;20535;6837;307694;-76
2023/03/05 01:42:08;;;;;;;36.75;27.98;;;6.00;44.30;;;;;;20532;6835;282228;-73
2023/03/05 01:44:33;;;;;;;32.97;22.87;;;6.30;44.00;;;;;;20743;6836;117774;-76
2023/03/05 01:46:59;;;;;;;38.55;28.48;;;6.20;43.80;;;;;;20535;6837;280500;-74
2023/03/05 01:49:24;;;;;;;33.07;22.27;;;6.20;43.90;;;;;;20725;6837;117642;-74
2023/03/05 01:52:10;;;;;;;31.73;21.80;;;5.90;44.10;;;;;;20736;6837;124290;-76
2023/03/05 01:54:39;;;;;;;34.67;20.53;;;5.80;44.00;;;;;;20729;6837;120344;-74
2023/03/05 01:57:05;;;;;;;31.33;20.33;;;5.60;44.40;;;;;;20688;6837;119086;-76
2023/03/05 01:59:30;;;;;;;34.87;21.23;;;5.40;44.70;;;;;;20736;6837;123909;-74
2023/03/05 02:01:56;;;;;;;40.05;21.65;;;5.30;44.90;;;;;;20738;6837;117396;-73
2023/03/05 02:04:22;;;;;;;33.65;23.00;;;5.10;45.20;;;;;;20751;6837;119824;-73
2023/03/05 02:06:49;;;;;;;33.53;20.40;;;5.10;45.20;;;;;;20736;6837;117359;-73
2023/03/05 02:09:15;;;;;;;38.35;22.83;;;5.00;45.30;;;;;;20725;6837;119650;-76
2023/03/05 02:11:40;;;;;;;33.33;20.57;;;4.90;45.40;;;;;;20738;6837;117546;-73
2023/03/05 02:14:06;;;;;;;36.90;27.15;;;4.90;45.60;;;;;;20529;6837;282164;-75
2023/03/05 02:16:35;;;;;;;34.77;22.43;;;5.20;46.20;;;;;;20735;6837;119359;-75
2023/03/05 02:18:59;;;;;;;32.90;20.70;;;5.20;45.70;;;;;;20734;6837;118711;-75
2023/03/05 02:21:28;;;;;;;36.70;22.43;;;5.20;45.70;;;;;;20735;6837;117529;-74
2023/03/05 02:23:53;;;;;;;38.97;28.27;;;5.10;45.80;;;;;;20495;6837;338052;-74
2023/03/05 02:26:20;;;;;;;40.42;28.85;;;5.30;46.30;;;;;;20527;6837;308131;-72
2023/03/05 02:28:48;;;;;;;39.70;27.83;;;6.00;45.20;;;;;;20526;6837;311961;-73
2023/03/05 02:31:13;;;;;;;40.90;24.20;;;6.00;45.20;;;;;;20723;6837;118914;-76
2023/03/05 02:33:39;;;;;;;34.47;22.85;;;6.00;44.90;;;;;;20739;6837;118367;-73
2023/03/05 02:36:05;;;;;;;38.10;23.10;;;5.80;45.10;;;;;;20741;6837;118519;-75
2023/03/05 02:38:31;;;;;;;36.10;27.67;;;5.50;45.30;;;;;;20521;6837;305687;-76
2023/03/05 02:40:56;;;;;;;34.87;23.13;;;5.60;45.50;;;;;;20739;6837;120139;-72
2023/03/05 02:43:22;;;;;;;39.28;28.10;;;5.80;45.40;;;;;;20500;6837;310092;-75
2023/03/05 02:45:48;;;;;;;36.40;23.83;;;5.80;45.40;;;;;;20751;6837;118228;-73
2023/03/05 02:48:14;;;;;;;37.20;22.87;;;5.80;45.20;;;;;;20745;6837;118432;-73
2023/03/05 02:50:39;;;;;;;36.88;28.40;;;5.50;45.20;;;;;;20528;6837;285021;-74
2023/03/05 02:53:05;;;;;;;37.67;28.47;;;5.60;45.70;;;;;;20508;6835;340368;-76
2023/03/05 02:55:32;;;;;;;37.45;24.00;;;5.90;45.60;;;;;;20748;6836;117474;-73
2023/03/05 02:57:57;;;;;;;38.40;23.63;;;5.90;45.30;;;;;;20749;6836;117177;-73
2023/03/05 03:00:23;;;;;;;39.00;28.08;;;5.70;45.40;;;;;;20531;6837;310775;-73
2023/03/05 03:02:48;;;;;;;37.60;23.73;;;5.80;45.80;;;;;;20739;6837;118562;-74
2023/03/05 03:05:14;;;;;;;39.83;29.50;;;5.70;45.50;;;;;;20506;6837;307969;-74
2023/03/05 03:07:40;;;;;;;38.07;23.97;;;5.90;45.60;;;;;;20735;6837;118810;-74
2023/03/05 03:10:06;;;;;;;32.25;21.98;;;5.80;45.30;;;;;;20740;6837;120188;-74
2023/03/05 03:12:31;;;;;;;38.50;23.40;;;5.60;45.50;;;;;;20737;6837;117758;-76
2023/03/05 03:14:57;;;;;;;33.13;21.55;;;5.40;45.70;;;;;;20723;6837;118605;-74
2023/03/05 03:17:22;;;;;;;41.60;30.47;;;5.30;45.90;;;;;;20496;6837;307453;-77
2023/03/05 03:19:48;;;;;;;34.08;23.20;;;5.40;46.20;;;;;;20746;6837;117715;-75
2023/03/05 03:22:13;;;;;;;32.22;22.67;;;5.50;45.90;;;;;;20750;6837;116670;-74
2023/03/05 03:24:40;;;;;;;32.53;21.67;;;5.30;45.90;;;;;;20734;6837;118901;-75
2023/03/05 03:27:06;;;;;;;40.47;28.65;;;5.20;46.10;;;;;;20502;6837;337711;-74
2023/03/05 03:29:31;;;;;;;43.80;25.50;;;5.40;46.30;;;;;;20738;6837;117436;-74
2023/03/05 03:31:57;;;;;;;37.90;23.30;;;5.40;45.90;;;;;;20741;6837;117665;-77
2023/03/05 03:34:22;;;;;;;35.13;22.53;;;5.30;45.90;;;;;;20731;6837;119454;-74
2023/03/05 03:36:49;;;;;;;40.42;29.58;;;5.30;46.30;;;;;;20511;6837;283373;-76
2023/03/05 03:39:14;;;;;;;36.63;23.73;;;5.30;46.30;;;;;;20719;6837;144744;-74
2023/03/05 03:41:40;;;;;;;39.63;29.58;;;5.40;46.00;;;;;;20524;6837;308060;-74
2023/03/05 03:44:07;;;;;;;40.55;24.42;;;5.60;46.10;;;;;;20745;6837;118524;-78
2023/03/05 03:46:32;;;;;;;39.10;28.93;;;5.70;45.40;;;;;;20523;6837;307590;-76
2023/03/05 03:48:57;;;;;;;41.67;30.33;;;5.70;45.70;;;;;;20536;6837;283512;-75
2023/03/05 03:51:24;;;;;;;38.33;29.48;;;6.30;44.60;;;;;;20502;6837;436156;-74
2023/03/05 03:53:49;;;;;;;33.93;24.03;;;6.30;44.60;;;;;;20741;6837;117571;-75
2023/03/05 03:56:15;;;;;;;35.20;23.13;;;5.90;44.90;;;;;;20734;6837;118569;-74
2023/03/05 03:58:41;;;;;;;39.53;28.87;;;5.90;44.90;;;;;;20527;6837;308085;-75
2023/03/05 04:01:07;;;;;;;33.80;22.95;;;5.90;45.10;;;;;;20716;6837;120010;-76
2023/03/05 04:03:32;;;;;;;35.27;23.00;;;5.80;44.90;;;;;;20742;6835;117417;-74
2023/03/05 04:05:58;;;;;;;35.43;22.37;;;5.40;45.40;;;;;;20717;6836;118276;-77
2023/03/05 04:08:25;;;;;;;41.13;23.37;;;5.30;46.10;;;;;;20744;6836;117894;-75
2023/03/05 04:10:52;;;;;;;39.40;28.23;;;5.20;45.70;;;;;;20526;6837;340452;-75
2023/03/05 04:13:17;;;;;;;41.03;25.70;;;5.40;46.10;;;;;;20722;6837;118842;-75
2023/03/05 04:15:43;;;;;;;34.43;22.33;;;5.40;45.80;;;;;;20755;6837;117651;-77
2023/03/05 04:18:08;;;;;;;37.97;28.73;;;5.30;45.90;;;;;;20539;6837;336778;-75
2023/03/05 04:20:34;;;;;;;37.25;24.92;;;5.50;46.10;;;;;;20745;6837;118523;-74
2023/03/05 04:23:00;;;;;;;41.57;30.13;;;5.60;46.40;;;;;;20533;6837;336816;-75
2023/03/05 04:25:26;;;;;;;39.00;29.17;;;6.00;45.40;;;;;;20513;6837;307257;-74
2023/03/05 04:27:51;;;;;;;39.53;29.57;;;6.00;45.40;;;;;;20519;6837;337113;-77
2023/03/05 04:30:18;;;;;;;39.43;25.53;;;6.10;44.70;;;;;;20735;6837;117824;-76
2023/03/05 04:32:43;;;;;;;39.73;23.67;;;6.10;44.70;;;;;;20730;6837;119125;-77
2023/03/05 04:35:09;;;;;;;34.87;23.47;;;5.80;45.00;;;;;;20718;6837;118200;-74
2023/03/05 04:37:34;;;;;;;37.10;22.95;;;5.60;45.40;;;;;;20737;6837;118867;-75
2023/03/05 04:40:00;;;;;;;34.72;22.70;;;5.40;45.70;;;;;;20748;6837;118572;-77
2023/03/05 04:42:26;;;;;;;43.13;30.07;;;5.20;45.90;;;;;;20535;6837;284431;-74
2023/03/05 04:44:51;;;;;;;41.37;30.00;;;5.40;46.40;;;;;;20532;6837;337638;-74
2023/03/05 04:47:17;;;;;;;39.38;25.00;;;5.70;46.00;;;;;;20722;6837;117878;-76
2023/03/05 04:49:42;;;;;;;37.70;23.60;;;5.80;45.70;;;;;;20746;6837;117435;-74
2023/03/05 04:52:08;;;;;;;36.28;22.37;;;5.60;45.80;;;;;;20685;6837;118541;-74
2023/03/05 04:54:34;;;;;;;32.70;21.83;;;5.40;46.10;;;;;;20728;6837;117783;-75
2023/03/05 04:56:59;;;;;;;34.75;22.20;;;5.30;46.30;;;;;;20737;6837;118979;-74
2023/03/05 04:59:25;;;;;;;38.80;29.75;;;5.10;46.40;;;;;;20509;6837;341393;-74
2023/03/05 05:01:50;;;;;;;36.70;24.97;;;5.30;47.00;;;;;;20733;6837;117509;-75
2023/03/05 05:04:19;;;;;;;35.97;23.40;;;5.30;46.60;;;;;;20740;6837;117684;-75
2023/03/05 05:06:44;;;;;;;41.00;29.83;;;5.20;46.60;;;;;;20527;6837;307652;-76
2023/03/05 05:09:10;;;;;;;35.03;24.73;;;5.40;47.00;;;;;;20718;6837;118690;-74
2023/03/05 05:11:36;;;;;;;35.97;23.13;;;5.30;46.80;;;;;;20738;6837;117545;-74
2023/03/05 05:14:03;;;;;;;34.73;22.83;;;5.30;46.80;;;;;;20739;6837;118532;-74
2023/03/05 05:16:27;;;;;;;36.97;22.55;;;5.20;46.90;;;;;;20744;6835;120312;-75
2023/03/05 05:18:53;;;;;;;38.53;24.03;;;5.10;47.10;;;;;;20738;6836;117962;-74
2023/03/05 05:21:19;;;;;;;40.30;23.80;;;5.00;47.20;;;;;;20726;6836;118905;-74
2023/03/05 05:23:46;;;;;;;34.30;22.13;;;4.90;47.20;;;;;;20738;6837;117554;-75
2023/03/05 05:26:13;;;;;;;37.97;23.30;;;4.80;47.30;;;;;;20741;6837;118330;-74
2023/03/05 05:28:37;;;;;;;37.67;21.87;;;4.80;47.40;;;;;;20737;6837;117278;-75
2023/03/05 05:31:02;;;;;;;32.47;21.73;;;4.70;47.50;;;;;;20755;6837;118401;-77
2023/03/05 05:33:29;;;;;;;36.22;23.02;;;4.70;47.50;;;;;;20713;6837;119317;-74
2023/03/05 05:35:56;;;;;;;40.93;28.83;;;4.70;47.60;;;;;;20531;6837;308532;-76
2023/03/05 05:38:22;;;;;;;38.70;24.03;;;4.90;48.10;;;;;;20736;6837;121018;-75
2023/03/05 05:40:49;;;;;;;39.67;29.67;;;5.30;47.80;;;;;;20529;6837;307555;-75
2023/03/05 05:43:15;;;;;;;41.00;29.92;;;5.20;47.70;;;;;;20495;6837;292274;-76
2023/03/05 05:45:41;;;;;;;42.13;30.10;;;5.90;46.50;;;;;;20527;6837;308786;-77
2023/03/05 05:48:07;;;;;;;39.47;25.37;;;5.90;46.50;;;;;;20742;6837;123242;-75
2023/03/05 05:50:32;;;;;;;38.90;29.45;;;5.90;46.30;;;;;;20519;6837;277665;-74
2023/03/05 05:52:59;;;;;;;39.22;29.83;;;5.90;46.50;;;;;;20529;6837;307135;-76
2023/03/05 05:55:24;;;;;;;35.27;23.33;;;6.10;46.20;;;;;;20722;6837;119457;-78
2023/03/05 05:57:50;;;;;;;33.77;23.00;;;6.00;46.00;;;;;;20741;6837;117892;-79
2023/03/05 06:00:16;;;;;;;36.50;23.27;;;5.80;46.30;;;;;;20732;6837;117659;-79
2023/03/05 06:02:42;;;;;;;34.33;21.73;;;5.50;46.60;;;;;;20735;6837;118604;-74
2023/03/05 06:05:08;;;;;;;39.75;28.38;;;5.40;46.80;;;;;;20508;6837;312581;-75
2023/03/05 06:07:34;;;;;;;42.67;30.20;;;5.50;47.00;;;;;;20508;6837;278542;-76
2023/03/05 06:09:59;;;;;;;40.43;30.03;;;5.80;46.60;;;;;;20528;6837;312919;-77
2023/03/05 06:12:25;;;;;;;34.50;24.00;;;6.10;45.90;;;;;;20741;6837;122048;-76
2023/03/05 06:14:51;;;;;;;37.97;23.43;;;6.00;45.70;;;;;;20721;6837;118978;-78
2023/03/05 06:17:18;;;;;;;37.25;27.77;;;5.70;45.90;;;;;;20512;6837;307729;-76
2023/03/05 06:19:43;;;;;;;40.20;24.90;;;5.70;46.30;;;;;;20756;6837;121322;-76
2023/03/05 06:22:09;;;;;;;32.83;21.90;;;5.70;46.20;;;;;;20747;6837;116606;-80
2023/03/05 06:24:34;;;;;;;41.70;29.48;;;5.50;46.30;;;;;;20529;6837;279376;-78
2023/03/05 06:27:00;;;;;;;39.70;30.40;;;5.60;46.80;;;;;;20499;6835;341134;-79
2023/03/05 06:29:27;;;;;;;42.97;30.93;;;5.90;46.50;;;;;;20515;6836;312110;-76
2023/03/05 06:31:53;;;;;;;39.17;30.12;;;6.20;46.10;;;;;;20519;6836;312297;-79
2023/03/05 06:34:19;;;;;;;42.10;30.40;;;6.50;45.50;;;;;;20533;6837;282648;-79
2023/03/05 06:36:45;;;;;;;41.03;30.50;;;6.50;45.30;;;;;;20453;6837;315328;-78
2023/03/05 06:39:11;;;;;;;38.10;24.57;;;6.40;45.20;;;;;;20714;6837;120259;-78
2023/03/05 06:41:36;;;;;;;40.13;30.47;;;6.40;45.30;;;;;;20534;6837;278594;-76
2023/03/05 06:44:03;;;;;;;39.35;30.10;;;6.50;45.40;;;;;;20529;6837;308097;-80
2023/03/05 06:46:29;;;;;;;35.07;25.00;;;6.30;45.30;;;;;;20732;6837;119905;-78
2023/03/05 06:48:55;;;;;;;39.50;29.85;;;6.30;45.30;;;;;;20468;6837;335846;-77
2023/03/05 06:51:25;;;;;;;39.53;24.47;;;6.20;46.40;;;;;;20718;6837;118414;-77
2023/03/05 06:53:50;;;;;;;42.62;30.85;;;6.10;45.50;;;;;;20521;6837;336880;-80
2023/03/05 06:56:17;;;;;;;43.87;30.70;;;6.20;45.80;;;;;;20501;6837;310566;-76
2023/03/05 06:58:54;;;;;;;43.25;31.15;;;6.40;45.70;;;;;;20523;6837;280660;-78
2023/03/05 07:01:10;;;;;;;38.87;29.53;;;6.60;45.30;;;;;;20437;6837;281869;-78
2023/03/05 07:03:37;;;;;;;40.17;30.93;;;6.80;44.80;;;;;;20523;6837;278118;-76
2023/03/05 07:06:09;;;;;;;40.40;26.03;;;6.70;44.70;;;;;;20738;6837;117023;-78
2023/03/05 07:08:34;;;;;;;37.20;22.97;;;6.60;44.90;;;;;;20747;6837;118784;-76
2023/03/05 07:11:00;;;;;;;35.47;23.60;;;6.20;45.30;;;;;;20752;6837;118674;-77
2023/03/05 07:13:27;;;;;;;36.80;23.20;;;5.90;45.70;;;;;;20736;6837;119961;-76
2023/03/05 07:15:52;;;;;;;38.20;23.03;;;5.70;46.10;;;;;;20749;6837;117370;-76
2023/03/05 07:18:21;;;;;;;40.17;29.00;;;5.70;46.70;;;;;;20545;6837;279618;-81
2023/03/05 07:20:47;;;;;;;35.37;23.47;;;5.60;46.70;;;;;;20750;6837;119970;-78
2023/03/05 07:23:13;;;;;;;34.83;23.65;;;5.70;46.50;;;;;;20747;6837;118105;-76
2023/03/05 07:25:38;;;;;;;40.10;28.85;;;5.60;46.60;;;;;;20546;6837;306945;-79
2023/03/05 07:28:09;;;;;;;36.47;24.50;;;5.70;46.90;;;;;;20776;6837;67846;-80
2023/03/05 07:30:34;;;;;;;37.07;22.50;;;5.80;46.70;;;;;;20741;6837;117255;-77
2023/03/05 07:33:01;;;;;;;34.43;22.73;;;5.60;46.70;;;;;;20744;6837;117433;-76
2023/03/05 07:35:25;;;;;;;35.28;27.45;;;5.50;46.80;;;;;;20502;6837;307262;-77
2023/03/05 07:37:51;;;;;;;35.30;23.63;;;5.70;47.00;;;;;;20742;6837;117907;-77
2023/03/05 07:40:17;;;;;;;35.25;23.60;;;5.80;46.80;;;;;;20752;6835;117826;-78
2023/03/05 07:42:42;;;;;;;35.50;22.20;;;5.70;46.80;;;;;;20742;6836;118213;-76
2023/03/05 07:45:09;;;;;;;39.45;28.12;;;5.50;46.80;;;;;;20516;6837;307234;-77
2023/03/05 07:47:35;;;;;;;39.17;24.37;;;5.80;47.10;;;;;;20738;6837;117524;-80
2023/03/05 07:50:01;;;;;;;30.03;21.47;;;5.80;46.80;;;;;;20750;6837;117724;-74
2023/03/05 07:52:26;;;;;;;33.20;21.90;;;5.70;46.70;;;;;;20732;6837;121007;-76
2023/03/05 07:54:52;;;;;;;34.13;21.50;;;5.70;46.90;;;;;;20736;6837;117693;-80
2023/03/05 07:57:18;;;;;;;41.30;32.03;;;5.60;46.90;;;;;;20516;6837;308812;-79
2023/03/05 07:59:44;;;;;;;38.17;30.77;;;6.20;46.30;;;;;;20542;6837;277760;-76
2023/03/05 08:02:10;;;;;;;35.83;25.70;;;6.20;46.30;;;;;;20736;6837;117689;-76
2023/03/05 08:04:35;;;;;;;34.92;27.15;;;6.20;45.90;;;;;;20525;6837;306892;-76
2023/03/05 08:07:01;;;;;;;35.40;24.20;;;6.40;45.80;;;;;;20744;6837;117715;-76
2023/03/05 08:09:26;;;;;;;35.25;22.58;;;6.30;45.60;;;;;;20725;6837;121440;-77
2023/03/05 08:11:53;;;;;;;32.73;22.57;;;6.20;45.80;;;;;;20735;6837;117430;-76
2023/03/05 08:14:19;;;;;;;39.03;29.12;;;6.00;46.00;;;;;;20500;6837;340119;-76
2023/03/05 08:16:45;;;;;;;33.03;23.42;;;6.20;45.80;;;;;;20709;6837;118581;-74
2023/03/05 08:19:11;;;;;;;34.03;21.53;;;6.20;45.80;;;;;;20731;6837;117374;-76
2023/03/05 08:21:36;;;;;;;37.40;27.17;;;6.10;45.90;;;;;;20532;6837;312196;-76
2023/03/05 08:24:02;;;;;;;33.47;24.08;;;6.20;46.10;;;;;;20747;6837;119035;-77
2023/03/05 08:26:33;;;;;;;36.17;22.97;;;6.20;46.00;;;;;;20734;6837;117271;-78
2023/03/05 08:28:59;;;;;;;36.73;23.77;;;6.20;46.00;;;;;;20736;6837;119710;-81
2023/03/05 08:31:25;;;;;;;34.35;26.73;;;6.10;46.20;;;;;;20507;6837;311719;-81
2023/03/05 08:33:51;;;;;;;33.17;22.77;;;6.30;46.10;;;;;;20736;6837;121436;-78
2023/03/05 08:36:17;;;;;;;33.88;25.85;;;6.30;45.80;;;;;;20508;6837;278546;-78
2023/03/05 08:38:45;;;;;;;33.57;26.53;;;6.50;45.70;;;;;;20521;6837;337182;-78
2023/03/05 08:41:09;;;;;;;34.45;26.15;;;6.80;45.70;;;;;;20514;6837;337077;-78
2023/03/05 08:43:36;;;;;;;32.47;25.77;;;7.10;44.50;;;;;;20527;6837;299583;-77
2023/03/05 08:46:02;;;;;;;40.87;31.37;;;7.30;44.10;;;;;;20519;6837;312092;-78
2023/03/05 08:48:30;;;;;;;32.80;21.83;;;7.50;43.60;;;;;;20731;6837;121155;-79
2023/03/05 08:50:55;;;;;;;32.30;21.77;;;7.40;43.70;;;;;;20710;6835;118808;-76
2023/03/05 08:53:21;;;;;;;39.50;24.58;;;6.80;45.20;;;;;;20714;6836;118362;-77
2023/03/05 08:55:57;;;;;;;47.00;36.43;;;6.80;44.50;;;;;;20735;6836;117707;-77
2023/03/05 08:58:24;;;;;;;32.33;21.73;;;6.70;45.00;;;;;;20743;6837;121936;-75
2023/03/05 09:00:50;;;;;;;31.27;20.73;;;6.50;45.20;;;;;;20726;6837;117895;-75
2023/03/05 09:03:16;;;;;;;31.67;20.40;;;6.30;45.50;;;;;;20730;6837;117947;-74
2023/03/05 09:05:42;;;;;;;31.83;20.63;;;6.40;45.60;;;;;;20753;6837;117643;-76
2023/03/05 09:08:08;;;;;;;30.58;23.52;;;6.30;45.60;;;;;;20518;6837;307633;-75
2023/03/05 09:10:33;;;;;;;26.90;19.08;;;6.50;45.80;;;;;;20748;6837;118613;-75
2023/03/05 09:12:59;;;;;;;30.27;19.30;;;6.70;45.60;;;;;;20733;6837;117995;-75
2023/03/05 09:15:24;;;;;;;29.23;19.93;;;6.60;45.50;;;;;;20706;6837;118003;-74
2023/03/05 09:17:50;;;;;;;27.35;18.35;;;6.60;45.80;;;;;;20739;6837;118579;-75
2023/03/05 09:20:15;;;;;;;32.20;24.13;;;6.50;45.80;;;;;;20533;6837;337327;-76
2023/03/05 09:22:41;;;;;;;34.17;23.77;;;6.80;45.70;;;;;;20736;6837;123489;-76
2023/03/05 09:25:07;;;;;;;29.13;19.67;;;6.90;45.40;;;;;;20727;6837;117900;-76
2023/03/05 09:27:34;;;;;;;31.73;24.50;;;6.90;45.50;;;;;;20518;6837;323751;-76
2023/03/05 09:30:00;;;;;;;27.50;20.30;;;7.10;45.60;;;;;;20736;6837;118176;-75
2023/03/05 09:32:26;;;;;;;25.33;18.70;;;7.30;45.30;;;;;;20740;6837;119180;-76
2023/03/05 09:34:51;;;;;;;23.20;20.07;;;7.30;45.50;;;;;;20531;6837;307130;-76
2023/03/05 09:37:17;;;;;;;25.30;21.33;;;7.40;44.90;;;;;;20722;6837;130829;-77
2023/03/05 09:39:42;;;;;;;25.60;18.93;;;7.50;44.60;;;;;;20723;6837;119476;-76
2023/03/05 09:42:31;;;;;;;28.63;21.07;;;7.40;44.80;;;;;;20527;6837;336868;-75
2023/03/05 09:45:24;;;;;;;26.90;23.13;;;7.60;44.40;;;;;;20494;6837;307624;-75
2023/03/05 09:47:56;;;;;;;23.87;18.30;;;8.00;43.80;;;;;;20645;6837;117927;-75
2023/03/05 09:50:34;;;;;;;27.07;17.73;;;8.00;43.60;;;;;;20716;6837;117235;-75
2023/03/05 09:53:22;;;;;;;24.43;18.13;;;7.80;43.90;;;;;;20717;6837;119186;-73
2023/03/05 09:55:51;;;;;;;23.57;17.10;;;7.60;44.10;;;;;;20712;6837;122229;-74
2023/03/05 09:58:22;;;;;;;26.93;17.20;;;7.50;44.40;;;;;;20735;6837;120159;-72
2023/03/05 10:00:50;;;;;;;27.30;17.40;;;7.40;44.90;;;;;;20714;6837;118652;-71
2023/03/05 10:03:18;;;;;;;23.67;15.57;;;7.30;44.80;;;;;;20695;6835;118331;-74
2023/03/05 10:06:02;;;;;;;23.95;19.40;;;7.30;44.90;;;;;;20515;6836;336751;-76
2023/03/05 10:08:31;;;;;;;21.80;17.03;;;7.60;44.80;;;;;;20729;6837;120524;-73
2023/03/05 10:11:00;;;;;;;23.93;15.93;;;7.70;44.50;;;;;;20715;6837;117662;-76
2023/03/05 10:13:32;;;;;;;25.40;15.60;;;7.70;44.60;;;;;;20727;6837;120585;-74
2023/03/05 10:15:58;;;;;;;23.92;19.15;;;7.70;44.80;;;;;;20517;6837;278172;-74
2023/03/05 10:18:40;;;;;;;23.40;18.27;;;7.90;44.20;;;;;;20515;6837;336784;-74
2023/03/05 10:21:05;;;;;;;22.35;19.12;;;8.30;43.10;;;;;;20511;6837;337618;-75
2023/03/05 10:23:47;;;;;;;20.02;15.75;;;8.70;42.90;;;;;;20747;6837;72550;-74
2023/03/05 10:26:26;;;;;;;21.02;18.58;;;8.80;42.90;;;;;;20544;6837;279809;-73
2023/03/05 10:29:02;;;;;;;22.83;19.50;;;8.90;42.30;;;;;;20554;6837;277570;-75
2023/03/05 10:31:27;;;;;;;21.30;16.30;;;9.20;41.80;;;;;;20660;6852;119303;-72
2023/03/05 10:34:12;;;;;;;15.60;13.88;;;9.20;41.80;;;;;;20667;6852;120340;-75
2023/03/05 10:37:00;;;;;;;19.03;14.87;;;9.00;42.20;;;;;;20714;6852;67401;-76
2023/03/05 10:39:39;;;;;;;19.03;14.00;;;8.80;42.40;;;;;;20667;6852;117392;-77
2023/03/05 10:42:22;;;;;;;19.47;15.27;;;8.70;42.70;;;;;;20674;6852;121819;-75
2023/03/05 10:44:57;;;;;;;21.80;17.80;;;8.50;42.80;;;;;;20481;6852;278724;-76
2023/03/05 10:47:28;;;;;;;21.03;15.07;;;8.70;41.90;;;;;;20676;6852;128839;-77
2023/03/05 10:49:56;;;;;;;16.57;13.60;;;8.80;42.00;;;;;;20732;6837;117373;-76
2023/03/05 10:52:21;;;;;;;18.07;13.53;;;8.70;42.00;;;;;;20717;6822;117323;-75
2023/03/05 10:54:47;;;;;;;19.27;16.97;;;8.60;42.10;;;;;;20548;6822;285027;-77
2023/03/05 10:57:22;;;;;;;18.87;16.87;;;8.70;41.30;;;;;;20506;6822;277550;-74
2023/03/05 10:59:51;;;;;;;19.43;16.80;;;9.00;40.30;;;;;;20518;6837;296513;-74
2023/03/05 11:02:16;;;;;;;19.80;15.07;;;9.30;39.90;;;;;;20721;6837;117643;-76
2023/03/05 11:04:42;;;;;;;18.52;16.52;;;9.20;40.10;;;;;;20521;6837;278610;-74
2023/03/05 11:07:14;;;;;;;17.93;14.83;;;9.10;40.10;;;;;;20719;6837;118590;-76
2023/03/05 11:09:39;;;;;;;19.60;15.07;;;9.00;40.20;;;;;;20741;6837;118749;-79
2023/03/05 11:12:18;;;;;;;20.03;14.53;;;8.70;40.70;;;;;;20711;6837;118770;-72
2023/03/05 11:14:44;;;;;;;19.02;17.02;;;8.50;41.20;;;;;;20522;6835;308130;-73
2023/03/05 11:17:34;;;;;;;17.47;13.70;;;8.60;41.40;;;;;;20709;6835;117974;-73
2023/03/05 11:20:19;;;;;;;21.07;13.77;;;8.70;41.50;;;;;;20745;6835;117227;-72
2023/03/05 11:23:04;;;;;;;16.90;13.13;;;8.50;41.60;;;;;;20745;6835;117380;-73
2023/03/05 11:25:31;;;;;;;19.77;16.50;;;8.40;41.80;;;;;;20529;6835;282243;-74
2023/03/05 11:27:57;;;;;;;19.70;16.87;;;8.50;41.10;;;;;;20528;6835;337275;-72
2023/03/05 11:30:29;;;;;;;18.37;16.48;;;8.80;40.70;;;;;;20534;6835;295642;-80
2023/03/05 11:33:07;;;;;;;15.37;13.03;;;9.10;40.20;;;;;;20751;6835;117404;-77
2023/03/05 11:35:33;;;;;;;18.47;16.53;;;9.10;40.30;;;;;;20527;6835;307990;-74
2023/03/05 11:38:02;;;;;;;19.42;14.52;;;9.10;40.00;;;;;;20740;6835;117665;-79
2023/03/05 11:40:27;;;;;;;16.37;13.03;;;9.00;40.10;;;;;;20739;6835;117727;-72
2023/03/05 11:42:57;;;;;;;14.77;13.13;;;8.60;40.90;;;;;;20736;6835;117539;-72
2023/03/05 11:45:22;;;;;;;17.27;15.57;;;8.60;40.90;;;;;;20478;6835;307874;-81
2023/03/05 11:47:48;;;;;;;17.98;16.00;;;8.70;40.60;;;;;;20695;6616;304572;-73
2023/03/05 11:50:24;;;;;;;18.90;13.70;;;9.10;40.30;;;;;;20995;6761;117152;-74
2023/03/05 11:52:49;;;;;;;18.35;16.10;;;9.10;40.20;;;;;;20664;6761;336409;-72
2023/03/05 11:55:18;;;;;;;18.17;16.30;;;9.20;40.00;;;;;;20581;6810;311186;-71
2023/03/05 11:58:04;;;;;;;17.95;16.15;;;9.40;39.60;;;;;;20597;6813;277938;-74
2023/03/05 12:00:29;;;;;;;18.83;16.13;;;9.70;39.20;;;;;;20583;6813;306121;-75
2023/03/05 12:02:55;;;;;;;18.57;14.07;;;9.90;38.90;;;;;;20829;6813;117912;-74
2023/03/05 12:05:22;;;;;;;15.47;13.37;;;9.60;39.00;;;;;;20807;6814;117779;-74
2023/03/05 12:07:52;;;;;;;15.17;12.53;;;9.30;39.50;;;;;;20832;6814;118073;-76
2023/03/05 12:10:17;;;;;;;16.67;12.77;;;9.00;40.00;;;;;;20766;6829;118380;-74
2023/03/05 12:13:03;;;;;;;16.00;12.93;;;8.70;40.30;;;;;;20823;6814;117428;-74
2023/03/05 12:15:55;;;;;;;17.17;15.37;;;8.50;40.70;;;;;;20600;6814;311285;-75
2023/03/05 12:18:47;;;;;;;17.60;15.73;;;8.70;40.80;;;;;;20570;6829;282062;-76
2023/03/05 12:21:16;;;;;;;18.15;16.30;;;9.10;40.00;;;;;;19983;6814;278422;-74
2023/03/05 12:23:44;;;;;;;17.57;15.77;;;9.40;39.30;;;;;;20595;6814;320518;-74
2023/03/05 12:26:10;;;;;;;16.20;13.77;;;9.60;39.00;;;;;;20775;6828;117755;-74
2023/03/05 12:28:35;;;;;;;16.63;14.23;;;9.50;39.10;;;;;;20832;6814;117660;-77